Latest Weather Observations for Gooseberry Hill

IDW60901

Issued at 6:21 pm WST Sunday 10 May 2026 (issued every 10 minutes, with the page automatically refreshed every 10 minutes)

About weather observations | Map of Perth area stations | Latest observations for Perth area | Other Formats
Station Details ID: 009204 Name: GOOSEBERRY HILL Lat: -31.94 Lon: 116.05 Height: 220.0 m
Data from the previous 72 hours. | See also: Recent months at Gooseberry Hill
Date/Time
WST
Temp
°C
App
Temp
°C
Dew
Point
°C
Rel
Hum
%
Delta-T
°C
Wind Press
QNH
hPa
Press
MSL
hPa
Rain since
9am
mm
Dir  Spd
km/h
Gust
km/h
Spd
kts
Gust
kts
10/06:00pm 19.8 15.1 3.1 33 7.9 ENE 17 20 9 11 - - -
10/05:30pm 20.2 16.3 3.4 33 8.0 ENE 13 17 7 9 - - -
10/05:00pm 21.2 16.5 3.0 30 8.7 NE 17 24 9 13 - - -
10/04:30pm 21.8 17.1 3.0 29 9.0 NE 17 26 9 14 - - -
10/04:00pm 22.3 17.6 2.9 28 9.3 NE 17 26 9 14 - - -
10/03:30pm 22.8 17.9 3.9 29 9.3 ENE 19 30 10 16 - - -
10/03:00pm 22.9 18.0 3.9 29 9.4 ENE 19 32 10 17 - - -
10/02:30pm 23.2 18.5 5.2 31 9.1 NE 19 28 10 15 - - -
10/02:00pm 22.9 19.4 5.3 32 8.9 NNE 13 22 7 12 - - -
10/01:30pm 22.4 18.4 4.9 32 8.8 NE 15 22 8 12 - - -
10/01:00pm 22.5 18.6 5.4 33 8.6 ENE 15 24 8 13 - - -
10/12:30pm 23.4 19.2 5.8 32 9.0 NNE 17 26 9 14 - - -
10/12:00pm 22.3 17.3 4.4 31 8.9 NNE 20 32 11 17 - - -
10/11:30am 21.3 16.4 5.2 35 8.0 NE 20 28 11 15 - - -
10/11:00am 20.9 15.7 5.7 37 7.6 NE 22 30 12 16 - - -
10/10:30am 20.0 15.9 6.0 40 7.0 NE 17 24 9 13 - - -
10/10:00am 18.8 14.1 6.0 43 6.4 NE 20 28 11 15 - - -
10/09:30am 17.4 12.9 6.3 48 5.5 ENE 19 28 10 15 - - -
10/09:00am 16.2 12.5 6.3 52 4.9 ENE 15 22 8 12 - - -
10/08:30am 14.8 10.1 6.1 56 4.2 ENE 20 33 11 18 - - -
10/08:00am 13.8 7.9 5.7 58 3.9 E 26 35 14 19 - - -
10/07:30am 13.1 6.0 5.5 60 3.6 ENE 32 39 17 21 - - -
10/07:00am 12.6 5.3 5.3 61 3.4 ENE 33 43 18 23 - - -
10/06:30am 12.5 5.1 5.2 61 3.4 ENE 33 46 18 25 - - -
10/06:00am 12.2 4.8 4.9 61 3.4 E 33 44 18 24 - - -
10/05:30am 12.2 5.0 4.9 61 3.4 E 32 43 17 23 - - -
10/05:00am 12.7 5.9 4.9 59 3.6 E 30 43 16 23 - - -
10/04:30am 12.5 4.7 4.7 59 3.6 E 35 50 19 27 - - -
10/04:00am 12.9 5.1 4.8 58 3.8 E 35 46 19 25 - - -
10/03:30am 12.9 5.4 4.3 56 4.0 E 33 44 18 24 - - -
10/03:00am 13.4 5.9 4.3 54 4.2 E 33 43 18 23 - - -
10/02:30am 13.7 5.7 4.0 52 4.5 E 35 44 19 24 - - -
10/02:00am 14.2 6.2 3.9 50 4.8 E 35 43 19 23 - - -
10/01:30am 14.7 7.1 3.8 48 5.0 E 33 44 18 24 - - -
10/01:00am 14.8 7.7 3.6 47 5.2 E 30 41 16 22 - - -
10/12:30am 15.0 7.5 3.5 46 5.3 ENE 32 37 17 20 - - -
10/12:00am 15.2 7.7 3.4 45 5.4 ENE 32 37 17 20 - - -
 
Date/Time
WST
Temp
°C
App
Temp
°C
Dew
Point
°C
Rel
Hum
%
Delta-T
°C
Wind Press
QNH
hPa
Press
MSL
hPa
Rain since
9am
mm
Dir  Spd
km/h
Gust
km/h
Spd
kts
Gust
kts
09/11:30pm 15.2 8.4 3.0 44 5.6 E 28 35 15 19 - - -
09/11:00pm 15.1 8.3 3.0 44 5.5 ENE 28 33 15 18 - - -
09/10:30pm 15.5 9.0 2.7 42 5.8 ENE 26 33 14 18 - - -
09/10:00pm 15.9 8.6 2.7 41 6.0 E 30 39 16 21 - - -
09/09:30pm 15.8 9.2 2.2 40 6.1 E 26 35 14 19 - - -
09/09:00pm 16.2 9.2 1.9 38 6.4 E 28 37 15 20 - - -
09/08:30pm 16.1 9.5 2.2 39 6.3 E 26 33 14 18 - - -
09/08:00pm 16.5 9.5 1.8 37 6.6 E 28 35 15 19 - - -
09/07:30pm 17.2 11.0 2.0 36 6.9 E 24 32 13 17 - - -
09/07:00pm 17.7 11.8 1.7 34 7.3 E 22 32 12 17 - - -
09/06:30pm 18.5 12.9 1.5 32 7.7 ENE 20 26 11 14 - - -
09/06:00pm 19.0 14.4 1.5 31 8.0 ENE 15 20 8 11 - - -
09/05:30pm 19.3 14.3 1.3 30 8.2 ENE 17 20 9 11 - - -
09/05:00pm 20.0 15.8 1.4 29 8.5 ENE 13 20 7 11 - - -
09/04:30pm 20.7 16.2 2.0 29 8.7 ENE 15 24 8 13 - - -
09/04:00pm 21.3 16.9 2.6 29 8.9 NE 15 20 8 11 - - -
09/03:30pm 21.4 16.0 2.6 29 8.9 ENE 20 28 11 15 - - -
09/03:00pm 21.8 17.0 4.4 32 8.6 ENE 19 30 10 16 - - -
09/02:30pm 22.0 17.0 4.6 32 8.6 ENE 20 30 11 16 - - -
09/02:00pm 21.8 15.9 3.9 31 8.8 ENE 24 33 13 18 - - -
09/01:30pm 21.8 17.0 4.4 32 8.6 NE 19 28 10 15 - - -
09/01:00pm 21.4 15.6 4.5 33 8.3 ENE 24 32 13 17 - - -
09/12:30pm 21.2 16.3 5.1 35 8.0 ENE 20 32 11 17 - - -
09/12:00pm 21.2 17.0 5.6 36 7.8 NE 17 28 9 15 - - -
09/11:30am 20.8 17.0 6.0 38 7.5 NE 15 24 8 13 - - -
09/11:00am 19.2 14.4 5.6 41 6.7 ENE 20 33 11 18 - - -
09/10:30am 18.1 12.5 5.3 43 6.3 NE 24 35 13 19 - - -
09/10:00am 17.8 12.7 6.0 46 5.8 NE 22 35 12 19 - - -
09/09:30am 16.4 10.1 5.7 49 5.2 ENE 28 46 15 25 - - -
09/09:27am 16.0 9.6 5.3 49 5.2 ENE 28 46 15 25 - - -
09/09:00am 15.1 10.4 5.9 54 4.5 ENE 20 35 11 19 - - -
09/08:30am 13.8 6.6 5.7 58 3.9 ENE 33 52 18 28 - - -
09/08:22am 13.4 6.1 5.3 58 3.8 ENE 33 52 18 28 - - -
09/08:00am 13.0 5.3 5.2 59 3.7 ENE 35 48 19 26 - - -
09/07:30am 12.6 4.8 4.8 59 3.6 ENE 35 46 19 25 - - -
09/07:00am 12.3 4.5 4.8 60 3.5 ENE 35 50 19 27 - - -
09/06:30am 12.5 5.0 4.7 59 3.6 ENE 33 48 18 26 - - -
09/06:00am 13.0 6.9 4.7 57 3.9 ENE 26 39 14 21 - - -
09/05:30am 12.9 8.1 4.8 58 3.8 ENE 19 30 10 16 - - -
09/05:00am 12.8 7.8 4.5 57 3.8 ENE 20 33 11 18 - - -
09/04:30am 13.1 9.1 4.8 57 3.9 ENE 15 28 8 15 - - -
09/04:00am 13.2 8.8 4.6 56 4.0 ENE 17 24 9 13 - - -
09/03:30am 13.4 8.0 4.6 55 4.1 ENE 22 35 12 19 - - -
09/03:00am 13.7 7.2 4.6 54 4.2 ENE 28 43 15 23 - - -
09/02:32am 13.9 6.6 4.5 53 4.4 ENE 32 50 17 27 - - -
09/02:30am 13.9 6.6 4.5 53 4.4 ENE 32 46 17 25 - - -
09/02:00am 14.3 5.3 4.6 52 4.5 ENE 41 59 22 32 - - -
09/01:51am 14.5 5.5 4.5 51 4.7 ENE 41 59 22 32 - - -
09/01:30am 14.8 6.6 4.5 50 4.8 ENE 37 56 20 30 - - -
09/01:00am 15.4 6.4 4.5 48 5.1 ENE 41 63 22 34 - - -
09/12:57am 15.4 6.0 4.2 47 5.3 ENE 43 63 23 34 - - -
09/12:30am 15.5 6.5 4.3 47 5.3 ENE 41 56 22 30 - - -
09/12:02am 15.5 6.5 4.3 47 5.3 ENE 41 59 22 32 - - -
09/12:00am 15.5 6.8 4.3 47 5.3 ENE 39 56 21 30 - - -
 
Date/Time
WST
Temp
°C
App
Temp
°C
Dew
Point
°C
Rel
Hum
%
Delta-T
°C
Wind Press
QNH
hPa
Press
MSL
hPa
Rain since
9am
mm
Dir  Spd
km/h
Gust
km/h
Spd
kts
Gust
kts
08/11:30pm 15.6 8.1 3.7 45 5.5 E 32 46 17 25 - - -
08/11:00pm 15.8 9.1 3.6 44 5.7 E 28 39 15 21 - - -
08/10:30pm 15.9 9.6 4.0 45 5.6 E 26 41 14 22 - - -
08/10:00pm 16.0 9.1 4.4 46 5.5 E 30 41 16 22 - - -
08/09:30pm 16.2 9.4 5.2 48 5.3 E 30 46 16 25 - - -
08/09:00pm 16.3 10.0 5.6 49 5.2 E 28 43 15 23 - - -
08/08:30pm 16.4 10.1 5.7 49 5.2 E 28 39 15 21 - - -
08/08:00pm 16.7 11.1 5.6 48 5.4 E 24 35 13 19 - - -
08/07:30pm 17.1 11.9 5.7 47 5.6 E 22 32 12 17 - - -
08/07:00pm 17.5 12.9 5.8 46 5.8 E 19 28 10 15 - - -
08/06:30pm 18.1 13.9 5.7 44 6.1 ENE 17 24 9 13 - - -
08/06:00pm 18.8 13.2 5.6 42 6.5 ENE 24 39 13 21 - - -
08/05:30pm 19.3 13.8 5.7 41 6.8 ENE 24 37 13 20 - - -
08/05:00pm 19.8 13.9 5.8 40 7.0 ENE 26 41 14 22 - - -
08/04:30pm 20.4 14.6 6.4 40 7.1 ENE 26 41 14 22 - - -
08/04:00pm 20.8 15.9 6.7 40 7.2 ENE 22 37 12 20 - - -
08/03:30pm 21.4 15.4 6.9 39 7.5 ENE 28 43 15 23 - - -
08/03:00pm 21.5 14.5 6.2 37 7.8 ENE 32 43 17 23 - - -
08/02:30pm 22.1 16.8 6.7 37 8.0 NE 24 43 13 23 - - -
08/02:00pm 21.9 16.4 7.7 40 7.5 NE 26 37 14 20 - - -
08/01:48pm 21.7 15.8 7.5 40 7.4 ENE 28 48 15 26 - - -
08/01:30pm 21.8 17.4 9.0 44 6.9 ENE 22 37 12 20 - - -
08/01:00pm 21.8 17.3 8.7 43 7.0 ENE 22 35 12 19 - - -
08/12:30pm 21.0 15.4 8.9 46 6.5 ENE 28 41 15 22 - - -
08/12:00pm 20.7 15.5 8.7 46 6.4 NE 26 39 14 21 - - -
08/11:30am 20.0 14.5 9.0 49 5.9 NE 28 39 15 21 - - -
08/11:05am 20.1 14.8 9.7 51 5.6 NE 28 46 15 25 - - -
08/11:00am 19.1 12.2 8.7 51 5.5 NE 35 48 19 26 - - -
08/10:30am 18.2 12.6 8.7 54 5.0 ENE 28 44 15 24 - - -
08/10:00am 18.0 13.3 9.4 57 4.6 NE 24 33 13 18 - - -
08/09:30am 17.4 12.7 9.3 59 4.3 ENE 24 35 13 19 - - -
08/09:00am 16.4 11.2 8.9 61 3.9 ENE 26 37 14 20 - - -
08/08:30am 15.2 10.7 8.7 65 3.3 ENE 22 35 12 19 - - -
08/08:00am 14.0 9.4 8.2 68 2.9 ENE 22 33 12 18 - - -
08/07:30am 13.3 9.0 7.7 69 2.8 ENE 20 30 11 16 - - -
08/07:00am 12.4 7.6 7.3 71 2.5 E 22 32 12 17 - - -
08/06:30am 12.6 6.6 7.1 69 2.7 ENE 28 37 15 20 - - -
08/06:00am 12.6 7.0 7.1 69 2.7 E 26 33 14 18 - - -
08/05:30am 12.8 7.2 7.0 68 2.8 E 26 33 14 18 - - -
08/05:00am 13.1 8.2 6.9 66 3.0 ENE 22 30 12 16 - - -
08/04:30am 13.8 8.5 6.9 63 3.4 ENE 24 35 13 19 - - -
08/04:00am 14.3 8.3 6.9 61 3.6 ENE 28 43 15 23 - - -
08/03:30am 14.5 8.1 6.8 60 3.8 ENE 30 48 16 26 - - -
08/03:00am 14.8 7.8 6.9 59 3.9 ENE 33 50 18 27 - - -
08/02:57am 14.8 8.0 7.1 60 3.8 ENE 32 50 17 27 - - -
08/02:30am 14.9 7.9 7.0 59 3.9 ENE 33 48 18 26 - - -
08/02:01am 15.1 8.4 7.2 59 3.9 ENE 32 50 17 27 - - -
08/02:00am 15.0 8.1 7.1 59 3.9 ENE 33 50 18 27 - - -
08/01:30am 14.9 8.6 7.2 60 3.8 ENE 30 41 16 22 - - -
08/01:00am 14.7 8.3 7.0 60 3.8 E 30 41 16 22 - - -
08/12:30am 14.9 8.1 7.0 59 3.9 ENE 32 43 17 23 - - -
08/12:02am 15.1 8.3 6.9 58 4.1 E 32 50 17 27 - - -
08/12:00am 15.0 8.2 6.8 58 4.0 E 32 48 17 26 - - -
 
Date/Time
WST
Temp
°C
App
Temp
°C
Dew
Point
°C
Rel
Hum
%
Delta-T
°C
Wind Press
QNH
hPa
Press
MSL
hPa
Rain since
9am
mm
Dir  Spd
km/h
Gust
km/h
Spd
kts
Gust
kts
07/11:30pm 15.3 7.5 6.6 56 4.3 E 37 52 20 28 - - -
07/11:00pm 15.4 8.3 6.4 55 4.4 E 33 50 18 27 - - -
07/10:30pm 15.8 9.3 6.3 53 4.7 E 30 46 16 25 - - -
07/10:00pm 16.1 9.1 6.0 51 4.9 E 32 46 17 25 - - -
07/09:30pm 16.4 10.2 6.0 50 5.1 E 28 43 15 23 - - -
07/09:00pm 16.5 10.5 5.5 48 5.3 E 26 37 14 20 - - -
07/08:30pm 16.7 11.1 5.6 48 5.4 E 24 35 13 19 - - -
07/08:00pm 17.0 11.1 5.6 47 5.6 E 26 41 14 22 - - -
07/07:30pm 17.1 11.9 5.4 46 5.7 E 22 35 12 19 - - -
07/07:00pm 17.3 12.7 5.6 46 5.7 E 19 30 10 16 - - -
07/06:30pm 17.6 14.5 5.5 45 5.9 E 11 17 6 9 - - -

Latest Capital City Observations: Canberra | Sydney | Melbourne | Brisbane | Adelaide | Perth | Hobart | Darwin

Other formats

Comma delimited format used in spreadsheet applications
http://www.bom.gov.au/fwo/IDW60901/IDW60901.94615.axf

JavaScript Object Notation format (JSON) in row-major order
http://www.bom.gov.au/fwo/IDW60901/IDW60901.94615.json

Data quality

Most of these data are generated automatically and are frequently updated. Quality checks on data are not normally performed. It is possible for incorrect values to appear. Refer to information at About Latest Weather Observations and please check the disclaimer before using these data.